sensor_id;sensor_type;location;lat;lon;timestamp;pressure;altitude;pressure_sealevel;temperature;humidity
14067;BME280;7108;42.684;23.350;2022-09-09T00:01:37;95514.31;;;19.72;100.00
14067;BME280;7108;42.684;23.350;2022-09-09T00:04:36;95527.41;;;19.83;100.00
14067;BME280;7108;42.684;23.350;2022-09-09T00:10:34;95531.75;;;19.81;100.00
14067;BME280;7108;42.684;23.350;2022-09-09T00:13:19;95530.56;;;19.82;100.00
14067;BME280;7108;42.684;23.350;2022-09-09T00:16:05;95525.88;;;19.82;100.00
14067;BME280;7108;42.684;23.350;2022-09-09T00:19:04;95533.44;;;19.72;100.00
14067;BME280;7108;42.684;23.350;2022-09-09T00:23:57;95508.16;;;19.61;100.00
14067;BME280;7108;42.684;23.350;2022-09-09T00:26:32;95510.47;;;19.66;100.00
14067;BME280;7108;42.684;23.350;2022-09-09T00:31:38;95498.59;;;19.46;100.00
14067;BME280;7108;42.684;23.350;2022-09-09T00:34:14;95498.13;;;19.51;100.00
14067;BME280;7108;42.684;23.350;2022-09-09T00:36:41;95504.41;;;19.48;100.00
14067;BME280;7108;42.684;23.350;2022-09-09T00:39:16;95499.31;;;19.50;100.00
14067;BME280;7108;42.684;23.350;2022-09-09T00:58:30;95487.72;;;19.39;100.00
14067;BME280;7108;42.684;23.350;2022-09-09T01:01:09;95488.41;;;19.46;100.00
14067;BME280;7108;42.684;23.350;2022-09-09T01:03:39;95492.72;;;19.44;100.00
14067;BME280;7108;42.684;23.350;2022-09-09T01:06:17;95485.75;;;19.39;100.00
14067;BME280;7108;42.684;23.350;2022-09-09T01:12:12;95492.00;;;19.40;100.00
14067;BME280;7108;42.684;23.350;2022-09-09T01:14:48;95492.06;;;19.33;100.00
14067;BME280;7108;42.684;23.350;2022-09-09T01:27:21;95489.50;;;19.19;100.00
14067;BME280;7108;42.684;23.350;2022-09-09T01:29:48;95491.41;;;19.22;100.00
14067;BME280;7108;42.684;23.350;2022-09-09T01:32:37;95490.25;;;19.19;100.00
14067;BME280;7108;42.684;23.350;2022-09-09T01:35:04;95498.09;;;19.17;100.00
14067;BME280;7108;42.684;23.350;2022-09-09T01:37:30;95498.47;;;19.16;100.00
14067;BME280;7108;42.684;23.350;2022-09-09T01:39:56;95503.63;;;19.10;100.00
14067;BME280;7108;42.684;23.350;2022-09-09T01:42:21;95505.59;;;19.07;100.00
14067;BME280;7108;42.684;23.350;2022-09-09T01:44:47;95495.44;;;19.04;100.00
14067;BME280;7108;42.684;23.350;2022-09-09T01:47:12;95503.28;;;19.02;100.00
14067;BME280;7108;42.684;23.350;2022-09-09T01:49:37;95509.09;;;19.07;100.00
14067;BME280;7108;42.684;23.350;2022-09-09T01:52:03;95498.59;;;19.02;100.00
14067;BME280;7108;42.684;23.350;2022-09-09T01:54:31;95503.69;;;19.00;100.00
14067;BME280;7108;42.684;23.350;2022-09-09T02:02:26;95514.63;;;19.00;100.00
14067;BME280;7108;42.684;23.350;2022-09-09T02:05:37;95508.38;;;18.96;100.00
14067;BME280;7108;42.684;23.350;2022-09-09T02:08:42;95512.31;;;18.95;100.00
14067;BME280;7108;42.684;23.350;2022-09-09T02:11:21;95491.38;;;18.82;100.00
14067;BME280;7108;42.684;23.350;2022-09-09T02:13:52;95503.75;;;18.93;100.00
14067;BME280;7108;42.684;23.350;2022-09-09T02:16:34;95489.38;;;18.86;100.00
14067;BME280;7108;42.684;23.350;2022-09-09T02:19:27;95486.56;;;18.93;100.00
14067;BME280;7108;42.684;23.350;2022-09-09T02:21:57;95487.81;;;18.88;100.00
14067;BME280;7108;42.684;23.350;2022-09-09T02:24:24;95491.31;;;18.85;100.00
14067;BME280;7108;42.684;23.350;2022-09-09T02:26:53;95492.91;;;18.83;100.00
14067;BME280;7108;42.684;23.350;2022-09-09T02:29:28;95495.63;;;18.83;100.00
14067;BME280;7108;42.684;23.350;2022-09-09T02:31:58;95494.91;;;18.79;100.00
14067;BME280;7108;42.684;23.350;2022-09-09T02:34:28;95502.72;;;18.77;100.00
14067;BME280;7108;42.684;23.350;2022-09-09T02:36:57;95495.72;;;18.72;100.00
14067;BME280;7108;42.684;23.350;2022-09-09T02:39:25;95497.66;;;18.75;100.00
14067;BME280;7108;42.684;23.350;2022-09-09T02:41:51;95500.78;;;18.74;100.00
14067;BME280;7108;42.684;23.350;2022-09-09T02:44:18;95511.72;;;18.74;100.00
14067;BME280;7108;42.684;23.350;2022-09-09T02:52:27;95506.72;;;18.62;100.00
14067;BME280;7108;42.684;23.350;2022-09-09T02:55:04;95500.50;;;18.61;100.00
14067;BME280;7108;42.684;23.350;2022-09-09T02:57:31;95503.63;;;18.60;100.00
14067;BME280;7108;42.684;23.350;2022-09-09T02:59:58;95495.50;;;18.49;100.00
14067;BME280;7108;42.684;23.350;2022-09-09T03:02:24;95505.22;;;18.57;100.00
14067;BME280;7108;42.684;23.350;2022-09-09T03:04:50;95509.13;;;18.56;100.00
14067;BME280;7108;42.684;23.350;2022-09-09T03:07:20;95508.34;;;18.56;100.00
14067;BME280;7108;42.684;23.350;2022-09-09T03:09:46;95504.09;;;18.48;100.00
14067;BME280;7108;42.684;23.350;2022-09-09T03:12:12;95518.44;;;18.62;100.00
14067;BME280;7108;42.684;23.350;2022-09-09T03:14:38;95510.31;;;18.52;100.00
14067;BME280;7108;42.684;23.350;2022-09-09T03:17:06;95515.34;;;18.57;100.00
14067;BME280;7108;42.684;23.350;2022-09-09T03:19:33;95516.16;;;18.50;100.00
14067;BME280;7108;42.684;23.350;2022-09-09T03:22:01;95518.13;;;18.53;100.00
14067;BME280;7108;42.684;23.350;2022-09-09T03:24:26;95518.47;;;18.55;100.00
14067;BME280;7108;42.684;23.350;2022-09-09T03:26:52;95505.66;;;18.49;100.00
14067;BME280;7108;42.684;23.350;2022-09-09T03:29:17;95509.94;;;18.53;100.00
14067;BME280;7108;42.684;23.350;2022-09-09T03:31:44;95513.47;;;18.47;100.00
14067;BME280;7108;42.684;23.350;2022-09-09T03:34:10;95518.16;;;18.43;100.00
14067;BME280;7108;42.684;23.350;2022-09-09T03:36:36;95507.25;;;18.43;100.00
14067;BME280;7108;42.684;23.350;2022-09-09T03:39:02;95495.63;;;18.32;100.00
14067;BME280;7108;42.684;23.350;2022-09-09T03:41:28;95513.16;;;18.35;100.00
14067;BME280;7108;42.684;23.350;2022-09-09T03:43:54;95506.53;;;18.36;100.00
14067;BME280;7108;42.684;23.350;2022-09-09T03:46:21;95503.47;;;18.30;100.00
14067;BME280;7108;42.684;23.350;2022-09-09T03:48:47;95510.09;;;18.29;100.00
14067;BME280;7108;42.684;23.350;2022-09-09T03:51:12;95518.59;;;18.35;100.00
14067;BME280;7108;42.684;23.350;2022-09-09T03:53:38;95525.25;;;18.34;100.00
14067;BME280;7108;42.684;23.350;2022-09-09T03:56:06;95528.38;;;18.32;100.00
14067;BME280;7108;42.684;23.350;2022-09-09T03:58:33;95519.44;;;18.28;100.00
14067;BME280;7108;42.684;23.350;2022-09-09T04:01:01;95528.44;;;18.25;100.00
14067;BME280;7108;42.684;23.350;2022-09-09T04:03:28;95529.97;;;18.26;100.00
14067;BME280;7108;42.684;23.350;2022-09-09T04:05:55;95528.81;;;18.20;100.00
14067;BME280;7108;42.684;23.350;2022-09-09T04:08:21;95535.47;;;18.19;100.00
14067;BME280;7108;42.684;23.350;2022-09-09T04:10:48;95526.09;;;18.20;100.00
14067;BME280;7108;42.684;23.350;2022-09-09T04:13:16;95531.53;;;18.24;100.00
14067;BME280;7108;42.684;23.350;2022-09-09T04:15:42;95517.53;;;18.15;100.00
14067;BME280;7108;42.684;23.350;2022-09-09T04:18:08;95528.03;;;18.23;100.00
14067;BME280;7108;42.684;23.350;2022-09-09T04:20:34;95524.50;;;18.26;100.00
14067;BME280;7108;42.684;23.350;2022-09-09T04:23:01;95530.34;;;18.28;100.00
14067;BME280;7108;42.684;23.350;2022-09-09T04:25:26;95519.06;;;18.23;100.00
14067;BME280;7108;42.684;23.350;2022-09-09T04:27:55;95521.41;;;18.28;100.00
14067;BME280;7108;42.684;23.350;2022-09-09T04:30:21;95508.19;;;18.19;100.00
14067;BME280;7108;42.684;23.350;2022-09-09T04:32:47;95522.16;;;18.28;100.00
14067;BME280;7108;42.684;23.350;2022-09-09T04:35:12;95531.13;;;18.29;100.00
14067;BME280;7108;42.684;23.350;2022-09-09T04:37:38;95529.19;;;18.26;100.00
14067;BME280;7108;42.684;23.350;2022-09-09T04:40:04;95512.44;;;18.24;100.00
14067;BME280;7108;42.684;23.350;2022-09-09T04:42:29;95525.31;;;18.27;100.00
14067;BME280;7108;42.684;23.350;2022-09-09T04:44:55;95523.75;;;18.22;100.00
14067;BME280;7108;42.684;23.350;2022-09-09T04:47:20;95533.09;;;18.18;100.00
14067;BME280;7108;42.684;23.350;2022-09-09T04:49:46;95531.94;;;18.26;100.00
14067;BME280;7108;42.684;23.350;2022-09-09T04:52:12;95530.38;;;18.25;100.00
14067;BME280;7108;42.684;23.350;2022-09-09T04:54:38;95524.13;;;18.28;100.00
14067;BME280;7108;42.684;23.350;2022-09-09T04:57:04;95525.28;;;18.30;100.00
14067;BME280;7108;42.684;23.350;2022-09-09T04:59:30;95507.78;;;18.21;100.00
14067;BME280;7108;42.684;23.350;2022-09-09T05:01:55;95501.09;;;18.29;100.00
14067;BME280;7108;42.684;23.350;2022-09-09T05:04:21;95486.81;;;18.00;100.00
14067;BME280;7108;42.684;23.350;2022-09-09T05:06:47;95513.56;;;18.33;100.00
14067;BME280;7108;42.684;23.350;2022-09-09T05:09:12;95496.03;;;18.34;100.00
14067;BME280;7108;42.684;23.350;2022-09-09T05:11:37;95490.47;;;18.48;100.00
14067;BME280;7108;42.684;23.350;2022-09-09T05:14:04;95495.50;;;18.53;100.00
14067;BME280;7108;42.684;23.350;2022-09-09T05:16:30;95485.75;;;18.52;100.00
14067;BME280;7108;42.684;23.350;2022-09-09T05:18:56;95507.50;;;18.62;100.00
14067;BME280;7108;42.684;23.350;2022-09-09T05:21:23;95510.25;;;18.62;100.00
14067;BME280;7108;42.684;23.350;2022-09-09T05:23:50;95510.50;;;18.78;100.00
14067;BME280;7108;42.684;23.350;2022-09-09T05:26:19;95491.81;;;18.77;100.00
14067;BME280;7108;42.684;23.350;2022-09-09T05:28:45;95503.75;;;18.93;100.00
14067;BME280;7108;42.684;23.350;2022-09-09T05:31:12;95499.31;;;19.06;100.00
14067;BME280;7108;42.684;23.350;2022-09-09T05:33:40;95502.78;;;19.13;100.00
14067;BME280;7108;42.684;23.350;2022-09-09T05:36:08;95495.69;;;19.23;100.00
14067;BME280;7108;42.684;23.350;2022-09-09T05:38:34;95501.72;;;19.44;100.00
14067;BME280;7108;42.684;23.350;2022-09-09T05:41:02;95486.38;;;19.54;100.00
14067;BME280;7108;42.684;23.350;2022-09-09T05:43:28;95504.56;;;19.67;100.00
14067;BME280;7108;42.684;23.350;2022-09-09T05:48:38;95487.91;;;19.88;100.00
14067;BME280;7108;42.684;23.350;2022-09-09T05:51:05;95504.53;;;20.04;100.00
14067;BME280;7108;42.684;23.350;2022-09-09T05:53:34;95502.88;;;20.13;100.00
14067;BME280;7108;42.684;23.350;2022-09-09T05:56:05;95491.91;;;20.13;100.00
14067;BME280;7108;42.684;23.350;2022-09-09T05:58:34;95506.22;;;20.24;100.00
14067;BME280;7108;42.684;23.350;2022-09-09T06:01:02;95506.22;;;20.24;100.00
14067;BME280;7108;42.684;23.350;2022-09-09T06:03:28;95499.09;;;20.30;100.00
14067;BME280;7108;42.684;23.350;2022-09-09T06:06:00;95511.97;;;20.33;100.00
14067;BME280;7108;42.684;23.350;2022-09-09T06:08:26;95504.47;;;20.11;100.00
14067;BME280;7108;42.684;23.350;2022-09-09T06:10:51;95512.34;;;20.05;100.00
14067;BME280;7108;42.684;23.350;2022-09-09T06:13:17;95516.81;;;20.22;100.00
14067;BME280;7108;42.684;23.350;2022-09-09T06:15:50;95512.00;;;20.30;100.00
14067;BME280;7108;42.684;23.350;2022-09-09T06:18:16;95500.25;;;20.33;100.00
14067;BME280;7108;42.684;23.350;2022-09-09T06:20:53;95506.41;;;20.40;100.00
14067;BME280;7108;42.684;23.350;2022-09-09T06:23:19;95510.09;;;20.53;100.00
14067;BME280;7108;42.684;23.350;2022-09-09T06:25:45;95505.94;;;20.45;100.00
14067;BME280;7108;42.684;23.350;2022-09-09T06:28:11;95525.25;;;20.61;100.00
14067;BME280;7108;42.684;23.350;2022-09-09T06:30:36;95520.53;;;20.61;100.00
14067;BME280;7108;42.684;23.350;2022-09-09T06:33:02;95520.44;;;20.68;100.00
14067;BME280;7108;42.684;23.350;2022-09-09T06:35:28;95515.25;;;20.77;100.00
14067;BME280;7108;42.684;23.350;2022-09-09T06:37:54;95502.00;;;20.72;100.00
14067;BME280;7108;42.684;23.350;2022-09-09T06:40:19;95504.34;;;20.70;100.00
14067;BME280;7108;42.684;23.350;2022-09-09T06:42:45;95494.72;;;20.62;100.00
14067;BME280;7108;42.684;23.350;2022-09-09T06:45:10;95508.75;;;20.64;100.00
14067;BME280;7108;42.684;23.350;2022-09-09T06:47:36;95482.69;;;20.56;100.00
14067;BME280;7108;42.684;23.350;2022-09-09T06:50:01;95491.56;;;20.64;100.00
14067;BME280;7108;42.684;23.350;2022-09-09T06:52:27;95507.47;;;20.72;100.00
14067;BME280;7108;42.684;23.350;2022-09-09T06:54:53;95501.97;;;20.76;100.00
14067;BME280;7108;42.684;23.350;2022-09-09T06:57:18;95506.94;;;20.84;100.00
14067;BME280;7108;42.684;23.350;2022-09-09T06:59:44;95519.41;;;20.85;100.00
14067;BME280;7108;42.684;23.350;2022-09-09T07:02:09;95509.75;;;20.77;100.00
14067;BME280;7108;42.684;23.350;2022-09-09T07:04:35;95520.34;;;20.75;100.00
14067;BME280;7108;42.684;23.350;2022-09-09T07:07:02;95508.16;;;20.80;100.00
14067;BME280;7108;42.684;23.350;2022-09-09T07:09:28;95515.16;;;20.84;100.00
14067;BME280;7108;42.684;23.350;2022-09-09T07:11:54;95505.41;;;20.80;100.00
14067;BME280;7108;42.684;23.350;2022-09-09T07:14:20;95515.44;;;20.90;100.00
14067;BME280;7108;42.684;23.350;2022-09-09T07:16:47;95506.69;;;20.98;100.00
14067;BME280;7108;42.684;23.350;2022-09-09T07:19:13;95504.22;;;21.04;100.00
14067;BME280;7108;42.684;23.350;2022-09-09T07:21:39;95509.88;;;21.16;100.00
14067;BME280;7108;42.684;23.350;2022-09-09T07:24:08;95503.41;;;21.07;100.00
14067;BME280;7108;42.684;23.350;2022-09-09T07:26:36;95511.69;;;21.26;100.00
14067;BME280;7108;42.684;23.350;2022-09-09T07:29:02;95507.56;;;21.37;100.00
14067;BME280;7108;42.684;23.350;2022-09-09T07:31:32;95508.91;;;21.49;100.00
14067;BME280;7108;42.684;23.350;2022-09-09T07:34:00;95500.59;;;21.56;100.00
14067;BME280;7108;42.684;23.350;2022-09-09T07:36:34;95499.41;;;21.57;99.59
14067;BME280;7108;42.684;23.350;2022-09-09T07:39:03;95484.78;;;21.63;98.80
14067;BME280;7108;42.684;23.350;2022-09-09T07:41:33;95490.97;;;21.67;98.80
14067;BME280;7108;42.684;23.350;2022-09-09T07:44:04;95510.31;;;21.79;92.75
14067;BME280;7108;42.684;23.350;2022-09-09T07:46:29;95503.88;;;21.86;92.05
14067;BME280;7108;42.684;23.350;2022-09-09T07:48:56;95503.63;;;22.00;91.82
14067;BME280;7108;42.684;23.350;2022-09-09T07:51:28;95504.31;;;22.04;89.62
14067;BME280;7108;42.684;23.350;2022-09-09T07:53:56;95502.94;;;21.96;90.06
14067;BME280;7108;42.684;23.350;2022-09-09T07:56:26;95513.69;;;22.06;91.23
14067;BME280;7108;42.684;23.350;2022-09-09T07:58:53;95497.56;;;22.08;87.48
14067;BME280;7108;42.684;23.350;2022-09-09T08:04:02;95502.41;;;22.40;96.92
14067;BME280;7108;42.684;23.350;2022-09-09T08:06:42;95497.38;;;22.54;91.88
14067;BME280;7108;42.684;23.350;2022-09-09T08:09:09;95508.16;;;22.61;88.21
14067;BME280;7108;42.684;23.350;2022-09-09T08:11:35;95489.75;;;22.61;89.05
14067;BME280;7108;42.684;23.350;2022-09-09T08:14:01;95499.94;;;22.77;83.72
14067;BME280;7108;42.684;23.350;2022-09-09T08:16:33;95488.13;;;22.80;83.12
14067;BME280;7108;42.684;23.350;2022-09-09T08:18:59;95495.34;;;22.90;85.69
14067;BME280;7108;42.684;23.350;2022-09-09T08:21:27;95496.44;;;22.92;86.59
14067;BME280;7108;42.684;23.350;2022-09-09T08:23:59;95492.34;;;23.00;82.88
14067;BME280;7108;42.684;23.350;2022-09-09T08:26:30;95481.75;;;22.99;82.55
14067;BME280;7108;42.684;23.350;2022-09-09T08:28:57;95491.34;;;23.10;84.69
14067;BME280;7108;42.684;23.350;2022-09-09T08:31:26;95484.28;;;23.09;83.20
14067;BME280;7108;42.684;23.350;2022-09-09T08:33:53;95496.56;;;23.20;83.22
14067;BME280;7108;42.684;23.350;2022-09-09T08:36:21;95482.38;;;23.22;83.25
14067;BME280;7108;42.684;23.350;2022-09-09T08:38:49;95467.97;;;23.02;84.63
14067;BME280;7108;42.684;23.350;2022-09-09T08:43:50;95482.97;;;23.13;88.60
14067;BME280;7108;42.684;23.350;2022-09-09T08:48:58;95474.38;;;23.27;87.52
14067;BME280;7108;42.684;23.350;2022-09-09T08:51:26;95463.38;;;23.27;87.12
14067;BME280;7108;42.684;23.350;2022-09-09T08:53:54;95465.25;;;23.30;86.95
14067;BME280;7108;42.684;23.350;2022-09-09T08:56:24;95479.59;;;23.38;84.75
14067;BME280;7108;42.684;23.350;2022-09-09T08:58:52;95474.69;;;23.29;83.48
14067;BME280;7108;42.684;23.350;2022-09-09T09:12:20;95480.00;;;23.52;88.99
14067;BME280;7108;42.684;23.350;2022-09-09T09:14:48;95470.44;;;23.57;84.18
14067;BME280;7108;42.684;23.350;2022-09-09T09:17:14;95470.25;;;23.64;84.30
14067;BME280;7108;42.684;23.350;2022-09-09T09:19:41;95473.16;;;23.73;84.79
14067;BME280;7108;42.684;23.350;2022-09-09T09:30:25;95460.97;;;23.86;80.41
14067;BME280;7108;42.684;23.350;2022-09-09T09:35:44;95465.66;;;24.01;80.42
14067;BME280;7108;42.684;23.350;2022-09-09T09:38:23;95470.69;;;23.90;79.74
14067;BME280;7108;42.684;23.350;2022-09-09T09:40:51;95460.88;;;23.89;80.39
14067;BME280;7108;42.684;23.350;2022-09-09T09:43:24;95462.22;;;23.85;82.64
14067;BME280;7108;42.684;23.350;2022-09-09T09:45:50;95436.97;;;23.74;80.81
14067;BME280;7108;42.684;23.350;2022-09-09T09:48:16;95436.91;;;23.90;83.34
14067;BME280;7108;42.684;23.350;2022-09-09T09:50:53;95448.25;;;24.04;80.34
14067;BME280;7108;42.684;23.350;2022-09-09T09:53:30;95444.94;;;24.09;78.56
14067;BME280;7108;42.684;23.350;2022-09-09T09:56:01;95441.34;;;24.12;76.33
14067;BME280;7108;42.684;23.350;2022-09-09T09:58:31;95432.72;;;24.10;75.77
14067;BME280;7108;42.684;23.350;2022-09-09T10:01:00;95425.13;;;24.14;77.37
14067;BME280;7108;42.684;23.350;2022-09-09T10:03:31;95431.19;;;24.22;77.19
14067;BME280;7108;42.684;23.350;2022-09-09T10:05:58;95438.50;;;24.28;77.64
14067;BME280;7108;42.684;23.350;2022-09-09T10:08:27;95436.19;;;24.27;77.39
14067;BME280;7108;42.684;23.350;2022-09-09T10:16:25;95450.16;;;24.32;74.35
14067;BME280;7108;42.684;23.350;2022-09-09T10:19:21;95451.38;;;24.31;73.79
14067;BME280;7108;42.684;23.350;2022-09-09T10:35:45;95458.06;;;24.18;84.13
14067;BME280;7108;42.684;23.350;2022-09-09T10:40:48;95452.25;;;24.16;81.48
14067;BME280;7108;42.684;23.350;2022-09-09T10:43:39;95453.78;;;24.17;81.67
14067;BME280;7108;42.684;23.350;2022-09-09T10:46:36;95462.38;;;24.06;84.96
14067;BME280;7108;42.684;23.350;2022-09-09T10:52:04;95463.25;;;24.03;86.92
14067;BME280;7108;42.684;23.350;2022-09-09T10:54:46;95468.59;;;23.94;85.81
14067;BME280;7108;42.684;23.350;2022-09-09T10:57:25;95462.13;;;24.01;87.24
14067;BME280;7108;42.684;23.350;2022-09-09T10:59:57;95462.91;;;24.01;85.43
14067;BME280;7108;42.684;23.350;2022-09-09T11:02:30;95452.22;;;24.03;85.72
14067;BME280;7108;42.684;23.350;2022-09-09T11:05:19;95456.41;;;24.08;85.04
14067;BME280;7108;42.684;23.350;2022-09-09T11:08:04;95454.66;;;24.14;86.38
14067;BME280;7108;42.684;23.350;2022-09-09T11:10:53;95447.28;;;24.11;85.91
14067;BME280;7108;42.684;23.350;2022-09-09T11:18:59;95448.94;;;24.08;87.64
14067;BME280;7108;42.684;23.350;2022-09-09T11:21:43;95447.16;;;24.14;87.53
14067;BME280;7108;42.684;23.350;2022-09-09T11:24:21;95444.84;;;24.13;89.76
14067;BME280;7108;42.684;23.350;2022-09-09T11:26:59;95433.63;;;24.20;91.36
14067;BME280;7108;42.684;23.350;2022-09-09T11:30:29;95431.88;;;24.26;91.91
14067;BME280;7108;42.684;23.350;2022-09-09T11:38:19;95413.59;;;24.32;87.87
14067;BME280;7108;42.684;23.350;2022-09-09T11:40:46;95408.84;;;24.32;88.95
14067;BME280;7108;42.684;23.350;2022-09-09T11:43:15;95411.81;;;24.25;90.11
14067;BME280;7108;42.684;23.350;2022-09-09T11:45:51;95400.38;;;24.27;91.66
14067;BME280;7108;42.684;23.350;2022-09-09T11:48:35;95394.41;;;24.28;92.73
14067;BME280;7108;42.684;23.350;2022-09-09T11:51:25;95389.38;;;24.27;92.24
14067;BME280;7108;42.684;23.350;2022-09-09T11:53:53;95369.41;;;24.23;89.77
14067;BME280;7108;42.684;23.350;2022-09-09T11:56:29;95360.91;;;24.30;90.59
14067;BME280;7108;42.684;23.350;2022-09-09T11:59:16;95363.22;;;24.31;89.11
14067;BME280;7108;42.684;23.350;2022-09-09T12:01:45;95360.38;;;24.35;89.07
14067;BME280;7108;42.684;23.350;2022-09-09T12:06:57;95375.56;;;24.64;88.76
14067;BME280;7108;42.684;23.350;2022-09-09T12:12:27;95357.69;;;24.81;85.47
14067;BME280;7108;42.684;23.350;2022-09-09T12:17:45;95358.16;;;25.01;86.56
14067;BME280;7108;42.684;23.350;2022-09-09T12:20:18;95354.97;;;25.02;85.24
14067;BME280;7108;42.684;23.350;2022-09-09T12:28:56;95363.56;;;25.16;86.17
14067;BME280;7108;42.684;23.350;2022-09-09T12:31:06;95343.28;;;25.11;89.79
14067;BME280;7108;42.684;23.350;2022-09-09T12:33:39;95349.69;;;25.29;89.27
14067;BME280;7108;42.684;23.350;2022-09-09T12:36:13;95340.72;;;25.37;87.87
14067;BME280;7108;42.684;23.350;2022-09-09T12:38:42;95338.59;;;25.41;86.65
14067;BME280;7108;42.684;23.350;2022-09-09T12:41:26;95333.53;;;25.40;87.02
14067;BME280;7108;42.684;23.350;2022-09-09T12:44:03;95320.44;;;25.31;88.64
14067;BME280;7108;42.684;23.350;2022-09-09T12:46:42;95322.94;;;25.38;88.33
14067;BME280;7108;42.684;23.350;2022-09-09T12:49:36;95329.34;;;25.35;90.04
14067;BME280;7108;42.684;23.350;2022-09-09T12:54:37;95304.72;;;25.19;87.59
14067;BME280;7108;42.684;23.350;2022-09-09T12:57:04;95322.41;;;25.31;87.60
14067;BME280;7108;42.684;23.350;2022-09-09T12:59:38;95309.34;;;25.22;92.06
14067;BME280;7108;42.684;23.350;2022-09-09T13:02:24;95314.13;;;25.31;91.50
14067;BME280;7108;42.684;23.350;2022-09-09T13:04:50;95308.63;;;25.31;91.06
14067;BME280;7108;42.684;23.350;2022-09-09T13:07:20;95304.97;;;25.34;90.65
14067;BME280;7108;42.684;23.350;2022-09-09T13:09:47;95299.91;;;25.32;89.16
14067;BME280;7108;42.684;23.350;2022-09-09T13:12:23;95289.63;;;25.33;89.59
14067;BME280;7108;42.684;23.350;2022-09-09T13:14:51;95289.81;;;25.38;87.84
14067;BME280;7108;42.684;23.350;2022-09-09T13:17:21;95310.09;;;25.44;88.09
14067;BME280;7108;42.684;23.350;2022-09-09T13:19:47;95297.66;;;25.40;88.19
14067;BME280;7108;42.684;23.350;2022-09-09T13:22:34;95306.91;;;25.46;87.29
14067;BME280;7108;42.684;23.350;2022-09-09T13:25:17;95303.38;;;25.45;88.18
14067;BME280;7108;42.684;23.350;2022-09-09T13:27:53;95270.19;;;25.36;89.52
14067;BME280;7108;42.684;23.350;2022-09-09T13:30:39;95282.69;;;25.50;88.66
14067;BME280;7108;42.684;23.350;2022-09-09T13:35:35;95289.44;;;25.49;87.36
14067;BME280;7108;42.684;23.350;2022-09-09T13:38:14;95285.25;;;25.44;87.78
14067;BME280;7108;42.684;23.350;2022-09-09T13:40:39;95288.34;;;25.46;88.31
14067;BME280;7108;42.684;23.350;2022-09-09T13:43:14;95282.66;;;25.41;87.20
14067;BME280;7108;42.684;23.350;2022-09-09T13:45:52;95273.91;;;25.42;88.89
14067;BME280;7108;42.684;23.350;2022-09-09T13:48:19;95260.72;;;25.37;89.61
14067;BME280;7108;42.684;23.350;2022-09-09T13:50:55;95259.22;;;25.45;88.46
14067;BME280;7108;42.684;23.350;2022-09-09T13:53:20;95253.06;;;25.41;90.40
14067;BME280;7108;42.684;23.350;2022-09-09T13:55:46;95254.28;;;25.40;92.76
14067;BME280;7108;42.684;23.350;2022-09-09T13:58:16;95262.28;;;25.47;89.96
14067;BME280;7108;42.684;23.350;2022-09-09T14:00:44;95251.06;;;25.42;89.51
14067;BME280;7108;42.684;23.350;2022-09-09T14:03:10;95255.56;;;25.48;90.10
14067;BME280;7108;42.684;23.350;2022-09-09T14:05:35;95250.47;;;25.47;92.03
14067;BME280;7108;42.684;23.350;2022-09-09T14:08:06;95263.44;;;25.59;92.22
14067;BME280;7108;42.684;23.350;2022-09-09T14:10:32;95260.66;;;25.59;88.57
14067;BME280;7108;42.684;23.350;2022-09-09T14:12:57;95253.31;;;25.56;90.68
14067;BME280;7108;42.684;23.350;2022-09-09T14:15:23;95240.97;;;25.48;86.29
14067;BME280;7108;42.684;23.350;2022-09-09T14:17:48;95256.81;;;25.56;87.76
14067;BME280;7108;42.684;23.350;2022-09-09T14:20:14;95239.31;;;25.50;86.88
14067;BME280;7108;42.684;23.350;2022-09-09T14:22:41;95256.34;;;25.58;86.66
14067;BME280;7108;42.684;23.350;2022-09-09T14:25:07;95248.06;;;25.58;86.73
14067;BME280;7108;42.684;23.350;2022-09-09T14:27:33;95244.56;;;25.57;89.96
14067;BME280;7108;42.684;23.350;2022-09-09T14:29:59;95233.31;;;25.52;85.71
14067;BME280;7108;42.684;23.350;2022-09-09T14:32:26;95241.19;;;25.53;85.20
14067;BME280;7108;42.684;23.350;2022-09-09T14:34:51;95240.53;;;25.49;88.70
14067;BME280;7108;42.684;23.350;2022-09-09T14:37:18;95253.13;;;25.59;88.25
14067;BME280;7108;42.684;23.350;2022-09-09T14:39:44;95242.38;;;25.52;86.53
14067;BME280;7108;42.684;23.350;2022-09-09T14:42:10;95243.59;;;25.51;86.47
14067;BME280;7108;42.684;23.350;2022-09-09T14:44:36;95237.75;;;25.49;86.86
14067;BME280;7108;42.684;23.350;2022-09-09T14:47:04;95226.22;;;25.42;89.53
14067;BME280;7108;42.684;23.350;2022-09-09T14:49:30;95242.78;;;25.42;92.19
14067;BME280;7108;42.684;23.350;2022-09-09T14:51:56;95237.84;;;25.37;92.62
14067;BME280;7108;42.684;23.350;2022-09-09T14:54:21;95233.78;;;25.20;98.07
14067;BME280;7108;42.684;23.350;2022-09-09T14:56:48;95240.53;;;25.19;98.72
14067;BME280;7108;42.684;23.350;2022-09-09T14:59:14;95230.50;;;25.13;95.07
14067;BME280;7108;42.684;23.350;2022-09-09T15:01:40;95234.91;;;25.10;99.51
14067;BME280;7108;42.684;23.350;2022-09-09T15:04:06;95248.72;;;25.10;96.59
14067;BME280;7108;42.684;23.350;2022-09-09T15:06:34;95235.25;;;24.91;95.90
14067;BME280;7108;42.684;23.350;2022-09-09T15:09:02;95240.34;;;24.80;100.00
14067;BME280;7108;42.684;23.350;2022-09-09T15:11:30;95264.94;;;24.74;100.00
14067;BME280;7108;42.684;23.350;2022-09-09T15:13:56;95250.78;;;24.63;100.00
14067;BME280;7108;42.684;23.350;2022-09-09T15:16:24;95245.97;;;24.55;100.00
14067;BME280;7108;42.684;23.350;2022-09-09T15:18:52;95257.75;;;24.55;100.00
14067;BME280;7108;42.684;23.350;2022-09-09T15:21:20;95248.41;;;24.53;100.00
14067;BME280;7108;42.684;23.350;2022-09-09T15:23:46;95256.09;;;24.58;100.00
14067;BME280;7108;42.684;23.350;2022-09-09T15:26:16;95254.66;;;24.53;100.00
14067;BME280;7108;42.684;23.350;2022-09-09T15:28:43;95265.44;;;24.60;100.00